PBD746 URSS-UWWW
Flight info
| Callsign | PBD746 |
|---|---|
| Flight time | N/A |
| Altitude | 36000 |
| Route | ADNET1S ADNET W79 NZ/K0824F380 B145 ER G128 MOR R720 IDKIP/K0835F370 R720 DAFOS P135 TUNIG TUNIG2G |
| Aircraft | B738/M-SDE2E3FGHIRWXY/LB1 |
Departure
| Time | N/A |
|---|---|
| Airport | Sochi International Airport (URSS) |
Arrival
| Time | 2026-04-30 19:07 |
|---|---|
| Airport | Kurumoch International Airport (UWWW) |
| Time | Latitude | Longitude | Altitude | Speed | Heading |
|---|---|---|---|---|---|
| 2026-04-30 17:39 | 45.88477 | 40.11289 | 36155 ft | 472 kts | 20° |
| 2026-04-30 17:42 | 46.16179 | 40.32231 | 36169 ft | 473 kts | 20° |
| 2026-04-30 17:43 | 46.30399 | 40.43006 | 36157 ft | 472 kts | 20° |
| 2026-04-30 17:44 | 46.46385 | 40.55819 | 36159 ft | 473 kts | 22° |
| 2026-04-30 17:46 | 46.60886 | 40.66920 | 36162 ft | 462 kts | 12° |
| 2026-04-30 17:47 | 46.73096 | 40.72457 | 36154 ft | 460 kts | 9° |
| 2026-04-30 17:48 | 46.94423 | 40.82013 | 36163 ft | 457 kts | 10° |
| 2026-04-30 17:50 | 47.18552 | 40.92973 | 36160 ft | 459 kts | 10° |
| 2026-04-30 17:52 | 47.36851 | 41.01361 | 36158 ft | 458 kts | 11° |
| 2026-04-30 17:54 | 47.63894 | 41.15992 | 36157 ft | 469 kts | 24° |
| 2026-04-30 17:56 | 47.86321 | 41.36066 | 36160 ft | 470 kts | 26° |
| 2026-04-30 17:58 | 48.03070 | 41.51351 | 36165 ft | 470 kts | 26° |
| 2026-04-30 18:00 | 48.25503 | 41.71986 | 36159 ft | 469 kts | 27° |
| 2026-04-30 18:01 | 48.39106 | 41.85729 | 36158 ft | 474 kts | 35° |
| 2026-04-30 18:02 | 48.54443 | 42.04517 | 36156 ft | 474 kts | 35° |
| 2026-04-30 18:04 | 48.69779 | 42.23284 | 36150 ft | 473 kts | 35° |
| 2026-04-30 18:06 | 48.90208 | 42.48488 | 36138 ft | 472 kts | 36° |
| 2026-04-30 18:08 | 49.07716 | 42.70301 | 36129 ft | 472 kts | 37° |
| 2026-04-30 18:10 | 49.28252 | 42.96153 | 36110 ft | 471 kts | 37° |
| 2026-04-30 18:11 | 49.45916 | 43.18624 | 36119 ft | 471 kts | 37° |
| 2026-04-30 18:13 | 49.58494 | 43.34756 | 36125 ft | 470 kts | 37° |
| 2026-04-30 18:14 | 49.71034 | 43.50950 | 36218 ft | 474 kts | 37° |
| 2026-04-30 18:15 | 49.78596 | 43.60772 | 36994 ft | 473 kts | 38° |
| 2026-04-30 18:15 | 49.86252 | 43.70756 | 37121 ft | 475 kts | 39° |
| 2026-04-30 18:16 | 49.96281 | 43.83902 | 37115 ft | 472 kts | 39° |
| 2026-04-30 18:17 | 50.01302 | 43.90508 | 37111 ft | 473 kts | 39° |
| 2026-04-30 18:18 | 50.08819 | 44.00437 | 37107 ft | 472 kts | 39° |
| 2026-04-30 18:18 | 50.13918 | 44.07196 | 37107 ft | 473 kts | 39° |
| 2026-04-30 18:19 | 50.18944 | 44.13878 | 37114 ft | 473 kts | 39° |
| 2026-04-30 18:19 | 50.23963 | 44.20570 | 37105 ft | 473 kts | 39° |
| 2026-04-30 18:20 | 50.28952 | 44.27242 | 37104 ft | 473 kts | 39° |
| 2026-04-30 18:20 | 50.33964 | 44.33963 | 37103 ft | 472 kts | 39° |
| 2026-04-30 18:21 | 50.38925 | 44.40633 | 37096 ft | 473 kts | 39° |
| 2026-04-30 18:21 | 50.43927 | 44.47380 | 37099 ft | 473 kts | 39° |
| 2026-04-30 18:22 | 50.48942 | 44.54164 | 37108 ft | 473 kts | 39° |
| 2026-04-30 18:22 | 50.56426 | 44.64325 | 37093 ft | 473 kts | 39° |
| 2026-04-30 18:23 | 50.61387 | 44.71084 | 37096 ft | 473 kts | 40° |
| 2026-04-30 18:23 | 50.66372 | 44.77896 | 37097 ft | 473 kts | 40° |
| 2026-04-30 18:24 | 50.73811 | 44.88102 | 37082 ft | 473 kts | 40° |
| 2026-04-30 18:25 | 50.78781 | 44.94941 | 37084 ft | 474 kts | 40° |
| 2026-04-30 18:25 | 50.86228 | 45.05231 | 37071 ft | 474 kts | 40° |
| 2026-04-30 18:26 | 50.93657 | 45.15539 | 37060 ft | 474 kts | 40° |
| 2026-04-30 18:27 | 51.01074 | 45.25875 | 37050 ft | 475 kts | 40° |
| 2026-04-30 18:28 | 51.08481 | 45.36278 | 37048 ft | 474 kts | 40° |
| 2026-04-30 18:28 | 51.15883 | 45.46732 | 37049 ft | 475 kts | 41° |
| 2026-04-30 18:29 | 51.25729 | 45.60704 | 37054 ft | 474 kts | 41° |
| 2026-04-30 18:30 | 51.35596 | 45.74792 | 37050 ft | 474 kts | 41° |
| 2026-04-30 18:31 | 51.42940 | 45.85333 | 37049 ft | 474 kts | 41° |
| 2026-04-30 18:32 | 51.50286 | 45.95920 | 37061 ft | 474 kts | 41° |
| 2026-04-30 18:33 | 51.57665 | 46.06578 | 37067 ft | 474 kts | 41° |
| 2026-04-30 18:33 | 51.65125 | 46.16930 | 37064 ft | 472 kts | 40° |
| 2026-04-30 18:34 | 51.72618 | 46.27331 | 37062 ft | 473 kts | 40° |
| 2026-04-30 18:35 | 51.77554 | 46.34226 | 37058 ft | 472 kts | 40° |
| 2026-04-30 18:35 | 51.82234 | 46.41661 | 37053 ft | 472 kts | 49° |
| 2026-04-30 18:36 | 51.88380 | 46.54047 | 37043 ft | 471 kts | 52° |
| 2026-04-30 18:37 | 51.94421 | 46.66674 | 37038 ft | 472 kts | 53° |
| 2026-04-30 18:37 | 51.98225 | 46.75309 | 37037 ft | 470 kts | 57° |
| 2026-04-30 18:38 | 52.01886 | 46.84078 | 37030 ft | 472 kts | 57° |
| 2026-04-30 18:38 | 52.05544 | 46.92813 | 37026 ft | 470 kts | 57° |
| 2026-04-30 18:39 | 52.09237 | 47.01611 | 37024 ft | 471 kts | 57° |
| 2026-04-30 18:39 | 52.12938 | 47.10430 | 37026 ft | 471 kts | 57° |
| 2026-04-30 18:40 | 52.16648 | 47.19288 | 37031 ft | 471 kts | 57° |
| 2026-04-30 18:40 | 52.20303 | 47.28039 | 37026 ft | 470 kts | 57° |
| 2026-04-30 18:41 | 52.23969 | 47.36841 | 37024 ft | 471 kts | 57° |
| 2026-04-30 18:41 | 52.27613 | 47.45615 | 37029 ft | 468 kts | 57° |
| 2026-04-30 18:42 | 52.31265 | 47.54442 | 37026 ft | 470 kts | 57° |
| 2026-04-30 18:42 | 52.34897 | 47.63242 | 36559 ft | 466 kts | 57° |
| 2026-04-30 18:42 | 52.36712 | 47.67657 | 35948 ft | 469 kts | 58° |
| 2026-04-30 18:45 | 52.54761 | 48.11932 | 30609 ft | 443 kts | 60° |
| 2026-04-30 18:45 | 52.56454 | 48.16129 | 30080 ft | 438 kts | 59° |
| 2026-04-30 18:45 | 52.58110 | 48.20238 | 29571 ft | 432 kts | 59° |
| 2026-04-30 18:46 | 52.59763 | 48.24348 | 28968 ft | 429 kts | 59° |
| 2026-04-30 18:46 | 52.61406 | 48.28442 | 28331 ft | 426 kts | 59° |
| 2026-04-30 18:46 | 52.63025 | 48.32480 | 27736 ft | 420 kts | 59° |
| 2026-04-30 18:46 | 52.64619 | 48.36441 | 27113 ft | 416 kts | 59° |
| 2026-04-30 18:47 | 52.66208 | 48.40414 | 26447 ft | 413 kts | 59° |
| 2026-04-30 18:47 | 52.67765 | 48.44331 | 25748 ft | 411 kts | 59° |
| 2026-04-30 18:47 | 52.69321 | 48.48249 | 25066 ft | 407 kts | 59° |
| 2026-04-30 18:47 | 52.70858 | 48.52120 | 24443 ft | 402 kts | 59° |
| 2026-04-30 18:48 | 52.72387 | 48.55959 | 23785 ft | 398 kts | 58° |
| 2026-04-30 18:48 | 52.73901 | 48.59761 | 23101 ft | 394 kts | 58° |
| 2026-04-30 18:48 | 52.75377 | 48.63489 | 22561 ft | 386 kts | 59° |
| 2026-04-30 18:48 | 52.76846 | 48.67204 | 22052 ft | 378 kts | 59° |
| 2026-04-30 18:49 | 52.78269 | 48.70807 | 21557 ft | 370 kts | 59° |
| 2026-04-30 18:49 | 52.79683 | 48.74395 | 21071 ft | 364 kts | 59° |
| 2026-04-30 18:49 | 52.81060 | 48.77895 | 20593 ft | 365 kts | 59° |
| 2026-04-30 18:49 | 52.82438 | 48.81403 | 20111 ft | 365 kts | 59° |
| 2026-04-30 18:50 | 52.83808 | 48.84892 | 19628 ft | 358 kts | 59° |
| 2026-04-30 18:50 | 52.85145 | 48.88295 | 19160 ft | 350 kts | 59° |
| 2026-04-30 18:50 | 52.86463 | 48.91657 | 18696 ft | 344 kts | 59° |
| 2026-04-30 18:50 | 52.87761 | 48.94977 | 18249 ft | 347 kts | 59° |
| 2026-04-30 18:51 | 52.89070 | 48.98331 | 17783 ft | 348 kts | 59° |
| 2026-04-30 18:51 | 52.90369 | 49.01662 | 17321 ft | 342 kts | 59° |
| 2026-04-30 18:51 | 52.91641 | 49.04925 | 16869 ft | 335 kts | 59° |
| 2026-04-30 18:51 | 52.92900 | 49.08157 | 16423 ft | 332 kts | 59° |
| 2026-04-30 18:52 | 52.94152 | 49.11384 | 15978 ft | 335 kts | 59° |
| 2026-04-30 18:52 | 52.95413 | 49.14634 | 15518 ft | 335 kts | 59° |
| 2026-04-30 18:52 | 52.96645 | 49.17810 | 15083 ft | 327 kts | 59° |
| 2026-04-30 18:52 | 52.97870 | 49.20969 | 14640 ft | 321 kts | 59° |
| 2026-04-30 18:53 | 52.99065 | 49.24060 | 14212 ft | 323 kts | 59° |
| 2026-04-30 18:53 | 53.00277 | 49.27199 | 13772 ft | 325 kts | 59° |
| 2026-04-30 18:53 | 53.01492 | 49.30347 | 13332 ft | 319 kts | 59° |
| 2026-04-30 18:53 | 53.02673 | 49.33409 | 12900 ft | 311 kts | 59° |
| 2026-04-30 18:54 | 53.03823 | 49.36399 | 12483 ft | 308 kts | 59° |
| 2026-04-30 18:54 | 53.04979 | 49.39409 | 12066 ft | 311 kts | 59° |
| 2026-04-30 18:54 | 53.06151 | 49.42464 | 11637 ft | 311 kts | 58° |
| 2026-04-30 18:54 | 53.07285 | 49.45420 | 11222 ft | 304 kts | 58° |
| 2026-04-30 18:55 | 53.08414 | 49.48365 | 10806 ft | 296 kts | 58° |
| 2026-04-30 18:55 | 53.10641 | 49.54189 | 10091 ft | 292 kts | 58° |
| 2026-04-30 18:55 | 53.11712 | 49.56993 | 9967 ft | 275 kts | 58° |
| 2026-04-30 18:56 | 53.13714 | 49.62249 | 9254 ft | 276 kts | 58° |
| 2026-04-30 18:56 | 53.14737 | 49.64938 | 8904 ft | 274 kts | 58° |
| 2026-04-30 18:56 | 53.15787 | 49.67701 | 8544 ft | 270 kts | 59° |
| 2026-04-30 18:57 | 53.17741 | 49.72848 | 7884 ft | 261 kts | 59° |
| 2026-04-30 18:57 | 53.18712 | 49.75415 | 7549 ft | 264 kts | 59° |
| 2026-04-30 18:57 | 53.19692 | 49.78003 | 7213 ft | 261 kts | 59° |
| 2026-04-30 18:58 | 53.21584 | 49.83007 | 6575 ft | 251 kts | 59° |
| 2026-04-30 18:58 | 53.22523 | 49.85497 | 6251 ft | 255 kts | 59° |
| 2026-04-30 18:58 | 53.23454 | 49.87968 | 5924 ft | 252 kts | 59° |
| 2026-04-30 18:59 | 53.25280 | 49.92816 | 5353 ft | 245 kts | 59° |
| 2026-04-30 19:00 | 53.28033 | 50.00149 | 5076 ft | 245 kts | 59° |
| 2026-04-30 19:00 | 53.28923 | 50.02522 | 4740 ft | 242 kts | 59° |
| 2026-04-30 19:00 | 53.30700 | 50.07266 | 4178 ft | 232 kts | 58° |
| 2026-04-30 19:01 | 53.32328 | 50.11626 | 4038 ft | 210 kts | 59° |
| 2026-04-30 19:01 | 53.33019 | 50.13694 | 3972 ft | 199 kts | 68° |
| 2026-04-30 19:02 | 53.33932 | 50.17981 | 3536 ft | 193 kts | 70° |
| 2026-04-30 19:02 | 53.34810 | 50.22102 | 3185 ft | 181 kts | 69° |
| 2026-04-30 19:03 | 53.36451 | 50.24895 | 2850 ft | 167 kts | 22° |
| 2026-04-30 19:03 | 53.38699 | 50.24740 | 2449 ft | 157 kts | 341° |
| 2026-04-30 19:04 | 53.40722 | 50.23490 | 2174 ft | 159 kts | 343° |
| 2026-04-30 19:04 | 53.42639 | 50.22330 | 1800 ft | 135 kts | 343° |
| 2026-04-30 19:05 | 53.44405 | 50.21282 | 1457 ft | 135 kts | 343° |
| 2026-04-30 19:05 | 53.46167 | 50.20235 | 1126 ft | 133 kts | 342° |
| 2026-04-30 19:06 | 53.47906 | 50.19201 | 801 ft | 132 kts | 342° |
| 2026-04-30 19:06 | 53.48777 | 50.18689 | 626 ft | 132 kts | 342° |
| 2026-04-30 19:06 | 53.50374 | 50.17736 | 487 ft | 84 kts | 341° |
| 2026-04-30 19:07 | 53.51011 | 50.17354 | 487 ft | 37 kts | 340° |
| 2026-04-30 19:07 | 53.51244 | 50.17213 | 487 ft | 34 kts | 340° |
| 2026-04-30 19:08 | 53.51436 | 50.17033 | 487 ft | 8 kts | 240° |
| 2026-04-30 19:08 | 53.51375 | 50.16824 | 487 ft | 14 kts | 243° |
| 2026-04-30 19:08 | 53.51329 | 50.16685 | 487 ft | 12 kts | 242° |
| 2026-04-30 19:09 | 53.51234 | 50.16394 | 487 ft | 17 kts | 242° |
| 2026-04-30 19:09 | 53.51174 | 50.16206 | 487 ft | 19 kts | 242° |
| 2026-04-30 19:09 | 53.51111 | 50.16011 | 487 ft | 18 kts | 241° |
| 2026-04-30 19:10 | 53.51018 | 50.15946 | 487 ft | 0 kts | 150° |
| 2026-04-30 19:10 | 53.51014 | 50.15949 | 487 ft | 0 kts | 150° |